sensor_id;sensor_type;location;lat;lon;timestamp;P1;durP1;ratioP1;P2;durP2;ratioP2
40170;SDS011;37650;52.790;18.268;2023-04-06T00:00:11;43.10;;;23.70;;
40170;SDS011;37650;52.790;18.268;2023-04-06T00:03:48;36.80;;;22.10;;
40170;SDS011;37650;52.790;18.268;2023-04-06T00:07:10;41.30;;;22.20;;
40170;SDS011;37650;52.790;18.268;2023-04-06T00:10:31;43.80;;;23.90;;
40170;SDS011;37650;52.790;18.268;2023-04-06T00:13:52;39.10;;;24.10;;
40170;SDS011;37650;52.790;18.268;2023-04-06T00:17:13;37.30;;;24.00;;
40170;SDS011;37650;52.790;18.268;2023-04-06T00:20:35;38.20;;;23.70;;
40170;SDS011;37650;52.790;18.268;2023-04-06T00:23:56;50.60;;;26.80;;
40170;SDS011;37650;52.790;18.268;2023-04-06T00:27:17;51.00;;;25.90;;
40170;SDS011;37650;52.790;18.268;2023-04-06T00:30:38;46.50;;;26.60;;
40170;SDS011;37650;52.790;18.268;2023-04-06T00:34:00;49.80;;;26.20;;
40170;SDS011;37650;52.790;18.268;2023-04-06T00:37:21;48.90;;;26.50;;
40170;SDS011;37650;52.790;18.268;2023-04-06T00:40:43;59.20;;;29.50;;
40170;SDS011;37650;52.790;18.268;2023-04-06T00:44:05;53.20;;;29.40;;
40170;SDS011;37650;52.790;18.268;2023-04-06T00:47:26;50.20;;;27.40;;
40170;SDS011;37650;52.790;18.268;2023-04-06T00:50:47;45.80;;;24.20;;
40170;SDS011;37650;52.790;18.268;2023-04-06T00:54:09;45.30;;;23.60;;
40170;SDS011;37650;52.790;18.268;2023-04-06T00:57:30;44.40;;;21.40;;
40170;SDS011;37650;52.790;18.268;2023-04-06T01:00:52;39.20;;;19.80;;
40170;SDS011;37650;52.790;18.268;2023-04-06T01:04:15;38.20;;;20.20;;
40170;SDS011;37650;52.790;18.268;2023-04-06T01:07:37;37.30;;;21.60;;
40170;SDS011;37650;52.790;18.268;2023-04-06T01:11:07;35.60;;;20.20;;
40170;SDS011;37650;52.790;18.268;2023-04-06T01:14:29;33.70;;;19.20;;
40170;SDS011;37650;52.790;18.268;2023-04-06T01:17:53;33.10;;;18.10;;
40170;SDS011;37650;52.790;18.268;2023-04-06T01:21:15;31.80;;;19.50;;
40170;SDS011;37650;52.790;18.268;2023-04-06T01:24:42;32.30;;;19.40;;
40170;SDS011;37650;52.790;18.268;2023-04-06T01:28:15;37.00;;;21.20;;
40170;SDS011;37650;52.790;18.268;2023-04-06T01:31:59;38.90;;;21.10;;
40170;SDS011;37650;52.790;18.268;2023-04-06T01:35:21;31.70;;;19.70;;
40170;SDS011;37650;52.790;18.268;2023-04-06T01:38:51;36.20;;;19.80;;
40170;SDS011;37650;52.790;18.268;2023-04-06T01:42:14;31.70;;;18.80;;
40170;SDS011;37650;52.790;18.268;2023-04-06T01:45:35;36.40;;;20.80;;
40170;SDS011;37650;52.790;18.268;2023-04-06T01:49:05;34.60;;;19.50;;
40170;SDS011;37650;52.790;18.268;2023-04-06T01:52:30;33.50;;;18.40;;
40170;SDS011;37650;52.790;18.268;2023-04-06T01:55:51;30.80;;;17.40;;
40170;SDS011;37650;52.790;18.268;2023-04-06T01:59:19;29.40;;;18.20;;
40170;SDS011;37650;52.790;18.268;2023-04-06T02:02:41;31.40;;;18.30;;
40170;SDS011;37650;52.790;18.268;2023-04-06T02:06:07;31.20;;;17.90;;
40170;SDS011;37650;52.790;18.268;2023-04-06T02:09:31;30.40;;;17.90;;
40170;SDS011;37650;52.790;18.268;2023-04-06T02:12:52;29.80;;;18.00;;
40170;SDS011;37650;52.790;18.268;2023-04-06T02:16:18;29.10;;;17.20;;
40170;SDS011;37650;52.790;18.268;2023-04-06T02:19:39;24.90;;;15.50;;
40170;SDS011;37650;52.790;18.268;2023-04-06T02:23:01;25.10;;;15.50;;
40170;SDS011;37650;52.790;18.268;2023-04-06T02:26:22;26.90;;;15.30;;
40170;SDS011;37650;52.790;18.268;2023-04-06T02:29:43;32.10;;;17.60;;
40170;SDS011;37650;52.790;18.268;2023-04-06T02:33:04;29.20;;;16.80;;
40170;SDS011;37650;52.790;18.268;2023-04-06T02:36:32;27.60;;;16.80;;
40170;SDS011;37650;52.790;18.268;2023-04-06T02:39:54;30.40;;;16.20;;
40170;SDS011;37650;52.790;18.268;2023-04-06T02:43:16;27.80;;;17.40;;
40170;SDS011;37650;52.790;18.268;2023-04-06T02:46:38;27.60;;;16.40;;
40170;SDS011;37650;52.790;18.268;2023-04-06T02:49:59;31.50;;;17.80;;
40170;SDS011;37650;52.790;18.268;2023-04-06T02:53:20;28.20;;;17.50;;
40170;SDS011;37650;52.790;18.268;2023-04-06T02:56:42;27.80;;;17.30;;
40170;SDS011;37650;52.790;18.268;2023-04-06T03:03:31;31.80;;;18.00;;
40170;SDS011;37650;52.790;18.268;2023-04-06T03:06:53;35.20;;;18.80;;
40170;SDS011;37650;52.790;18.268;2023-04-06T03:10:24;27.90;;;18.00;;
40170;SDS011;37650;52.790;18.268;2023-04-06T03:13:46;29.50;;;16.70;;
40170;SDS011;37650;52.790;18.268;2023-04-06T03:17:08;29.60;;;17.00;;
40170;SDS011;37650;52.790;18.268;2023-04-06T03:20:29;27.10;;;16.30;;
40170;SDS011;37650;52.790;18.268;2023-04-06T03:23:51;32.90;;;18.50;;
40170;SDS011;37650;52.790;18.268;2023-04-06T03:27:12;31.20;;;17.50;;
40170;SDS011;37650;52.790;18.268;2023-04-06T03:30:34;27.00;;;16.90;;
40170;SDS011;37650;52.790;18.268;2023-04-06T03:33:55;39.10;;;21.10;;
40170;SDS011;37650;52.790;18.268;2023-04-06T03:37:20;55.30;;;25.00;;
40170;SDS011;37650;52.790;18.268;2023-04-06T03:40:45;64.50;;;31.70;;
40170;SDS011;37650;52.790;18.268;2023-04-06T03:44:06;71.20;;;34.70;;
40170;SDS011;37650;52.790;18.268;2023-04-06T03:47:27;64.40;;;33.10;;
40170;SDS011;37650;52.790;18.268;2023-04-06T03:50:51;59.50;;;31.40;;
40170;SDS011;37650;52.790;18.268;2023-04-06T03:54:12;50.30;;;26.60;;
40170;SDS011;37650;52.790;18.268;2023-04-06T03:57:34;50.60;;;26.50;;
40170;SDS011;37650;52.790;18.268;2023-04-06T04:00:55;38.00;;;21.90;;
40170;SDS011;37650;52.790;18.268;2023-04-06T04:04:16;41.60;;;21.50;;
40170;SDS011;37650;52.790;18.268;2023-04-06T04:07:37;38.70;;;21.70;;
40170;SDS011;37650;52.790;18.268;2023-04-06T04:10:59;44.10;;;23.60;;
40170;SDS011;37650;52.790;18.268;2023-04-06T04:14:20;42.00;;;23.60;;
40170;SDS011;37650;52.790;18.268;2023-04-06T04:17:41;42.30;;;23.40;;
40170;SDS011;37650;52.790;18.268;2023-04-06T04:21:07;48.30;;;24.80;;
40170;SDS011;37650;52.790;18.268;2023-04-06T04:24:28;44.40;;;23.00;;
40170;SDS011;37650;52.790;18.268;2023-04-06T04:27:49;45.70;;;23.40;;
40170;SDS011;37650;52.790;18.268;2023-04-06T04:31:14;51.40;;;24.80;;
40170;SDS011;37650;52.790;18.268;2023-04-06T04:34:35;55.80;;;24.00;;
40170;SDS011;37650;52.790;18.268;2023-04-06T04:37:56;56.10;;;24.50;;
40170;SDS011;37650;52.790;18.268;2023-04-06T04:41:18;44.90;;;21.70;;
40170;SDS011;37650;52.790;18.268;2023-04-06T04:44:40;44.00;;;21.10;;
40170;SDS011;37650;52.790;18.268;2023-04-06T04:48:01;46.50;;;22.80;;
40170;SDS011;37650;52.790;18.268;2023-04-06T04:51:27;42.30;;;21.00;;
40170;SDS011;37650;52.790;18.268;2023-04-06T04:55:01;41.60;;;23.00;;
40170;SDS011;37650;52.790;18.268;2023-04-06T04:58:23;45.30;;;21.20;;
40170;SDS011;37650;52.790;18.268;2023-04-06T05:01:50;32.70;;;17.80;;
40170;SDS011;37650;52.790;18.268;2023-04-06T05:05:11;30.20;;;16.90;;
40170;SDS011;37650;52.790;18.268;2023-04-06T05:08:33;31.10;;;16.90;;
40170;SDS011;37650;52.790;18.268;2023-04-06T05:11:54;30.40;;;15.20;;
40170;SDS011;37650;52.790;18.268;2023-04-06T05:15:16;34.70;;;18.30;;
40170;SDS011;37650;52.790;18.268;2023-04-06T05:18:37;33.80;;;17.80;;
40170;SDS011;37650;52.790;18.268;2023-04-06T05:22:01;35.80;;;19.40;;
40170;SDS011;37650;52.790;18.268;2023-04-06T05:25:25;26.80;;;16.30;;
40170;SDS011;37650;52.790;18.268;2023-04-06T05:28:48;30.00;;;17.80;;
40170;SDS011;37650;52.790;18.268;2023-04-06T05:32:10;28.80;;;16.30;;
40170;SDS011;37650;52.790;18.268;2023-04-06T05:35:32;25.10;;;15.10;;
40170;SDS011;37650;52.790;18.268;2023-04-06T05:38:55;22.10;;;14.40;;
40170;SDS011;37650;52.790;18.268;2023-04-06T05:42:26;21.20;;;14.30;;
40170;SDS011;37650;52.790;18.268;2023-04-06T05:45:50;20.40;;;13.30;;
40170;SDS011;37650;52.790;18.268;2023-04-06T05:49:12;25.80;;;17.60;;
40170;SDS011;37650;52.790;18.268;2023-04-06T05:52:33;29.70;;;17.90;;
40170;SDS011;37650;52.790;18.268;2023-04-06T05:55:55;32.70;;;17.30;;
40170;SDS011;37650;52.790;18.268;2023-04-06T05:59:17;30.20;;;17.70;;
40170;SDS011;37650;52.790;18.268;2023-04-06T06:02:38;26.10;;;15.70;;
40170;SDS011;37650;52.790;18.268;2023-04-06T06:06:02;31.00;;;16.30;;
40170;SDS011;37650;52.790;18.268;2023-04-06T06:09:30;36.60;;;21.50;;
40170;SDS011;37650;52.790;18.268;2023-04-06T06:13:02;28.40;;;16.90;;
40170;SDS011;37650;52.790;18.268;2023-04-06T06:16:23;29.10;;;17.40;;
40170;SDS011;37650;52.790;18.268;2023-04-06T06:19:44;29.10;;;21.40;;
40170;SDS011;37650;52.790;18.268;2023-04-06T06:23:05;27.90;;;22.30;;
40170;SDS011;37650;52.790;18.268;2023-04-06T06:26:27;24.00;;;18.00;;
40170;SDS011;37650;52.790;18.268;2023-04-06T06:29:49;27.50;;;18.20;;
40170;SDS011;37650;52.790;18.268;2023-04-06T06:33:12;27.30;;;15.60;;
40170;SDS011;37650;52.790;18.268;2023-04-06T06:36:33;27.80;;;17.80;;
40170;SDS011;37650;52.790;18.268;2023-04-06T06:39:57;27.20;;;16.00;;
40170;SDS011;37650;52.790;18.268;2023-04-06T06:43:18;29.50;;;16.20;;
40170;SDS011;37650;52.790;18.268;2023-04-06T06:46:47;20.10;;;14.10;;
40170;SDS011;37650;52.790;18.268;2023-04-06T06:50:08;21.10;;;13.50;;
40170;SDS011;37650;52.790;18.268;2023-04-06T06:53:29;19.70;;;14.00;;
40170;SDS011;37650;52.790;18.268;2023-04-06T06:56:50;18.50;;;12.20;;
40170;SDS011;37650;52.790;18.268;2023-04-06T07:00:12;20.30;;;12.60;;
40170;SDS011;37650;52.790;18.268;2023-04-06T07:03:35;20.60;;;13.90;;
40170;SDS011;37650;52.790;18.268;2023-04-06T07:06:55;17.00;;;11.20;;
40170;SDS011;37650;52.790;18.268;2023-04-06T07:10:17;16.40;;;9.70;;
40170;SDS011;37650;52.790;18.268;2023-04-06T07:13:38;14.90;;;10.10;;
40170;SDS011;37650;52.790;18.268;2023-04-06T07:17:00;19.00;;;12.20;;
40170;SDS011;37650;52.790;18.268;2023-04-06T07:20:21;20.90;;;12.00;;
40170;SDS011;37650;52.790;18.268;2023-04-06T07:23:42;17.80;;;11.20;;
40170;SDS011;37650;52.790;18.268;2023-04-06T07:27:03;13.50;;;8.70;;
40170;SDS011;37650;52.790;18.268;2023-04-06T07:30:25;13.20;;;8.90;;
40170;SDS011;37650;52.790;18.268;2023-04-06T07:33:48;12.60;;;7.90;;
40170;SDS011;37650;52.790;18.268;2023-04-06T07:40:32;10.00;;;6.90;;
40170;SDS011;37650;52.790;18.268;2023-04-06T07:43:53;13.00;;;6.10;;
40170;SDS011;37650;52.790;18.268;2023-04-06T07:47:15;14.90;;;9.70;;
40170;SDS011;37650;52.790;18.268;2023-04-06T07:50:37;11.30;;;7.40;;
40170;SDS011;37650;52.790;18.268;2023-04-06T07:53:58;11.30;;;6.90;;
40170;SDS011;37650;52.790;18.268;2023-04-06T07:57:20;13.60;;;8.70;;
40170;SDS011;37650;52.790;18.268;2023-04-06T08:00:41;8.10;;;5.80;;
40170;SDS011;37650;52.790;18.268;2023-04-06T08:04:02;9.00;;;6.00;;
40170;SDS011;37650;52.790;18.268;2023-04-06T08:07:23;8.60;;;5.10;;
40170;SDS011;37650;52.790;18.268;2023-04-06T08:10:49;8.40;;;4.00;;
40170;SDS011;37650;52.790;18.268;2023-04-06T08:14:10;10.40;;;4.90;;
40170;SDS011;37650;52.790;18.268;2023-04-06T08:17:31;6.30;;;4.20;;
40170;SDS011;37650;52.790;18.268;2023-04-06T08:20:54;8.00;;;3.70;;
40170;SDS011;37650;52.790;18.268;2023-04-06T08:24:16;7.30;;;4.10;;
40170;SDS011;37650;52.790;18.268;2023-04-06T08:27:37;6.40;;;3.50;;
40170;SDS011;37650;52.790;18.268;2023-04-06T08:30:58;9.50;;;5.30;;
40170;SDS011;37650;52.790;18.268;2023-04-06T08:34:20;9.40;;;5.10;;
40170;SDS011;37650;52.790;18.268;2023-04-06T08:37:41;15.50;;;9.40;;
40170;SDS011;37650;52.790;18.268;2023-04-06T08:41:09;11.40;;;7.40;;
40170;SDS011;37650;52.790;18.268;2023-04-06T08:44:32;9.30;;;6.00;;
40170;SDS011;37650;52.790;18.268;2023-04-06T08:47:53;10.60;;;7.20;;
40170;SDS011;37650;52.790;18.268;2023-04-06T08:51:17;11.10;;;6.90;;
40170;SDS011;37650;52.790;18.268;2023-04-06T08:54:39;9.90;;;5.80;;
40170;SDS011;37650;52.790;18.268;2023-04-06T08:58:01;8.20;;;5.00;;
40170;SDS011;37650;52.790;18.268;2023-04-06T09:01:23;11.10;;;5.30;;
40170;SDS011;37650;52.790;18.268;2023-04-06T09:04:52;7.60;;;4.60;;
40170;SDS011;37650;52.790;18.268;2023-04-06T09:08:14;8.50;;;4.70;;
40170;SDS011;37650;52.790;18.268;2023-04-06T09:12:08;9.40;;;6.30;;
40170;SDS011;37650;52.790;18.268;2023-04-06T09:15:26;9.20;;;5.40;;
40170;SDS011;37650;52.790;18.268;2023-04-06T09:18:47;7.60;;;4.60;;
40170;SDS011;37650;52.790;18.268;2023-04-06T09:22:36;7.00;;;4.50;;
40170;SDS011;37650;52.790;18.268;2023-04-06T09:26:05;6.30;;;3.60;;
40170;SDS011;37650;52.790;18.268;2023-04-06T09:32:53;11.00;;;4.80;;
40170;SDS011;37650;52.790;18.268;2023-04-06T09:36:29;10.50;;;4.50;;
40170;SDS011;37650;52.790;18.268;2023-04-06T09:40:01;6.80;;;4.00;;
40170;SDS011;37650;52.790;18.268;2023-04-06T09:43:27;7.30;;;4.90;;
40170;SDS011;37650;52.790;18.268;2023-04-06T09:46:48;6.70;;;3.40;;
40170;SDS011;37650;52.790;18.268;2023-04-06T09:50:10;6.50;;;4.60;;
40170;SDS011;37650;52.790;18.268;2023-04-06T09:53:32;7.70;;;4.40;;
40170;SDS011;37650;52.790;18.268;2023-04-06T09:57:01;6.00;;;3.70;;
40170;SDS011;37650;52.790;18.268;2023-04-06T10:00:29;4.40;;;3.10;;
40170;SDS011;37650;52.790;18.268;2023-04-06T10:07:21;7.70;;;4.00;;
40170;SDS011;37650;52.790;18.268;2023-04-06T10:10:43;6.70;;;3.00;;
40170;SDS011;37650;52.790;18.268;2023-04-06T10:14:05;6.00;;;2.90;;
40170;SDS011;37650;52.790;18.268;2023-04-06T10:17:34;5.00;;;3.40;;
40170;SDS011;37650;52.790;18.268;2023-04-06T10:24:21;8.70;;;3.70;;
40170;SDS011;37650;52.790;18.268;2023-04-06T10:27:43;6.40;;;3.20;;
40170;SDS011;37650;52.790;18.268;2023-04-06T10:31:05;4.50;;;2.80;;
40170;SDS011;37650;52.790;18.268;2023-04-06T10:34:34;4.50;;;2.80;;
40170;SDS011;37650;52.790;18.268;2023-04-06T10:38:03;4.60;;;2.70;;
40170;SDS011;37650;52.790;18.268;2023-04-06T10:41:37;5.50;;;3.10;;
40170;SDS011;37650;52.790;18.268;2023-04-06T10:45:05;6.40;;;3.30;;
40170;SDS011;37650;52.790;18.268;2023-04-06T10:48:41;5.70;;;3.60;;
40170;SDS011;37650;52.790;18.268;2023-04-06T10:52:08;7.20;;;3.20;;
40170;SDS011;37650;52.790;18.268;2023-04-06T10:55:29;5.40;;;3.30;;
40170;SDS011;37650;52.790;18.268;2023-04-06T10:58:52;7.20;;;3.50;;
40170;SDS011;37650;52.790;18.268;2023-04-06T11:02:19;5.30;;;3.40;;
40170;SDS011;37650;52.790;18.268;2023-04-06T11:05:46;8.10;;;6.20;;
40170;SDS011;37650;52.790;18.268;2023-04-06T11:09:08;18.40;;;15.50;;
40170;SDS011;37650;52.790;18.268;2023-04-06T11:12:29;8.30;;;6.00;;
40170;SDS011;37650;52.790;18.268;2023-04-06T11:15:51;6.50;;;4.60;;
40170;SDS011;37650;52.790;18.268;2023-04-06T11:19:12;7.50;;;4.90;;
40170;SDS011;37650;52.790;18.268;2023-04-06T11:22:33;6.00;;;4.10;;
40170;SDS011;37650;52.790;18.268;2023-04-06T11:25:54;4.60;;;3.70;;
40170;SDS011;37650;52.790;18.268;2023-04-06T11:29:16;7.20;;;3.60;;
40170;SDS011;37650;52.790;18.268;2023-04-06T11:32:39;7.40;;;4.30;;
40170;SDS011;37650;52.790;18.268;2023-04-06T11:36:06;6.60;;;4.20;;
40170;SDS011;37650;52.790;18.268;2023-04-06T11:39:28;6.00;;;3.60;;
40170;SDS011;37650;52.790;18.268;2023-04-06T11:42:53;8.00;;;4.80;;
40170;SDS011;37650;52.790;18.268;2023-04-06T11:46:17;9.40;;;5.10;;
40170;SDS011;37650;52.790;18.268;2023-04-06T11:49:41;8.00;;;4.80;;
40170;SDS011;37650;52.790;18.268;2023-04-06T11:53:05;7.40;;;5.10;;
40170;SDS011;37650;52.790;18.268;2023-04-06T11:56:29;8.70;;;6.20;;
40170;SDS011;37650;52.790;18.268;2023-04-06T11:59:51;8.80;;;6.30;;
40170;SDS011;37650;52.790;18.268;2023-04-06T12:03:13;8.00;;;5.50;;
40170;SDS011;37650;52.790;18.268;2023-04-06T12:06:35;8.40;;;4.90;;
40170;SDS011;37650;52.790;18.268;2023-04-06T12:09:58;8.90;;;5.20;;
40170;SDS011;37650;52.790;18.268;2023-04-06T12:13:20;9.60;;;5.40;;
40170;SDS011;37650;52.790;18.268;2023-04-06T12:16:41;9.60;;;5.80;;
40170;SDS011;37650;52.790;18.268;2023-04-06T12:20:02;7.80;;;5.60;;
40170;SDS011;37650;52.790;18.268;2023-04-06T12:23:25;9.40;;;5.90;;
40170;SDS011;37650;52.790;18.268;2023-04-06T12:26:46;9.40;;;5.80;;
40170;SDS011;37650;52.790;18.268;2023-04-06T12:30:07;8.80;;;5.10;;
40170;SDS011;37650;52.790;18.268;2023-04-06T12:33:29;10.60;;;4.90;;
40170;SDS011;37650;52.790;18.268;2023-04-06T12:36:50;7.50;;;4.40;;
40170;SDS011;37650;52.790;18.268;2023-04-06T12:40:11;7.80;;;4.40;;
40170;SDS011;37650;52.790;18.268;2023-04-06T12:43:32;6.40;;;4.10;;
40170;SDS011;37650;52.790;18.268;2023-04-06T12:46:54;8.50;;;4.80;;
40170;SDS011;37650;52.790;18.268;2023-04-06T12:50:17;6.10;;;3.70;;
40170;SDS011;37650;52.790;18.268;2023-04-06T12:53:38;7.70;;;4.30;;
40170;SDS011;37650;52.790;18.268;2023-04-06T12:57:03;5.40;;;3.30;;
40170;SDS011;37650;52.790;18.268;2023-04-06T13:00:24;8.40;;;4.00;;
40170;SDS011;37650;52.790;18.268;2023-04-06T13:03:45;7.50;;;4.00;;
40170;SDS011;37650;52.790;18.268;2023-04-06T13:07:07;8.40;;;4.70;;
40170;SDS011;37650;52.790;18.268;2023-04-06T13:10:28;7.80;;;5.20;;
40170;SDS011;37650;52.790;18.268;2023-04-06T13:13:49;8.60;;;4.50;;
40170;SDS011;37650;52.790;18.268;2023-04-06T13:17:11;6.20;;;4.10;;
40170;SDS011;37650;52.790;18.268;2023-04-06T13:20:32;7.70;;;3.90;;
40170;SDS011;37650;52.790;18.268;2023-04-06T13:27:16;8.70;;;4.20;;
40170;SDS011;37650;52.790;18.268;2023-04-06T13:30:38;9.00;;;4.10;;
40170;SDS011;37650;52.790;18.268;2023-04-06T13:33:59;8.10;;;4.00;;
40170;SDS011;37650;52.790;18.268;2023-04-06T13:37:20;9.40;;;6.40;;
40170;SDS011;37650;52.790;18.268;2023-04-06T13:40:41;8.60;;;5.50;;
40170;SDS011;37650;52.790;18.268;2023-04-06T13:44:03;13.20;;;7.90;;
40170;SDS011;37650;52.790;18.268;2023-04-06T13:47:24;7.90;;;5.80;;
40170;SDS011;37650;52.790;18.268;2023-04-06T13:50:48;12.30;;;6.40;;
40170;SDS011;37650;52.790;18.268;2023-04-06T13:54:10;10.50;;;5.20;;
40170;SDS011;37650;52.790;18.268;2023-04-06T13:57:33;10.80;;;5.60;;
40170;SDS011;37650;52.790;18.268;2023-04-06T14:00:55;12.00;;;5.70;;
40170;SDS011;37650;52.790;18.268;2023-04-06T14:04:16;6.90;;;3.80;;
40170;SDS011;37650;52.790;18.268;2023-04-06T14:07:38;8.40;;;5.20;;
40170;SDS011;37650;52.790;18.268;2023-04-06T14:11:01;9.60;;;5.30;;
40170;SDS011;37650;52.790;18.268;2023-04-06T14:14:23;10.70;;;5.20;;
40170;SDS011;37650;52.790;18.268;2023-04-06T14:17:44;16.60;;;12.40;;
40170;SDS011;37650;52.790;18.268;2023-04-06T14:21:05;13.10;;;8.40;;
40170;SDS011;37650;52.790;18.268;2023-04-06T14:24:27;14.90;;;8.20;;
40170;SDS011;37650;52.790;18.268;2023-04-06T14:27:49;9.80;;;5.60;;
40170;SDS011;37650;52.790;18.268;2023-04-06T14:31:11;7.80;;;4.60;;
40170;SDS011;37650;52.790;18.268;2023-04-06T14:34:36;8.30;;;4.90;;
40170;SDS011;37650;52.790;18.268;2023-04-06T14:37:57;9.50;;;5.50;;
40170;SDS011;37650;52.790;18.268;2023-04-06T14:41:19;17.10;;;6.50;;
40170;SDS011;37650;52.790;18.268;2023-04-06T14:44:43;11.00;;;6.00;;
40170;SDS011;37650;52.790;18.268;2023-04-06T14:48:05;15.50;;;7.20;;
40170;SDS011;37650;52.790;18.268;2023-04-06T14:51:27;11.50;;;6.30;;
40170;SDS011;37650;52.790;18.268;2023-04-06T14:54:48;15.00;;;9.70;;
40170;SDS011;37650;52.790;18.268;2023-04-06T14:58:10;11.60;;;7.70;;
40170;SDS011;37650;52.790;18.268;2023-04-06T15:01:33;11.30;;;8.10;;
40170;SDS011;37650;52.790;18.268;2023-04-06T15:04:57;8.50;;;5.70;;
40170;SDS011;37650;52.790;18.268;2023-04-06T15:08:18;13.70;;;8.30;;
40170;SDS011;37650;52.790;18.268;2023-04-06T15:11:43;10.40;;;6.30;;
40170;SDS011;37650;52.790;18.268;2023-04-06T15:15:10;13.20;;;8.00;;
40170;SDS011;37650;52.790;18.268;2023-04-06T15:18:31;21.60;;;10.10;;
40170;SDS011;37650;52.790;18.268;2023-04-06T15:21:56;16.10;;;10.30;;
40170;SDS011;37650;52.790;18.268;2023-04-06T15:25:17;14.30;;;8.30;;
40170;SDS011;37650;52.790;18.268;2023-04-06T15:28:38;14.30;;;9.60;;
40170;SDS011;37650;52.790;18.268;2023-04-06T15:32:00;28.10;;;16.40;;
40170;SDS011;37650;52.790;18.268;2023-04-06T15:35:21;30.70;;;16.50;;
40170;SDS011;37650;52.790;18.268;2023-04-06T15:38:42;21.00;;;14.70;;
40170;SDS011;37650;52.790;18.268;2023-04-06T15:42:03;27.70;;;15.60;;
40170;SDS011;37650;52.790;18.268;2023-04-06T15:45:25;28.90;;;11.60;;
40170;SDS011;37650;52.790;18.268;2023-04-06T15:48:46;19.00;;;9.40;;
40170;SDS011;37650;52.790;18.268;2023-04-06T15:52:08;21.50;;;10.10;;
40170;SDS011;37650;52.790;18.268;2023-04-06T15:55:30;15.60;;;6.40;;
40170;SDS011;37650;52.790;18.268;2023-04-06T15:58:50;20.90;;;11.70;;
40170;SDS011;37650;52.790;18.268;2023-04-06T16:02:12;19.50;;;9.70;;
40170;SDS011;37650;52.790;18.268;2023-04-06T16:05:40;21.90;;;9.40;;
40170;SDS011;37650;52.790;18.268;2023-04-06T16:09:01;23.30;;;11.30;;
40170;SDS011;37650;52.790;18.268;2023-04-06T16:15:48;30.00;;;17.50;;
40170;SDS011;37650;52.790;18.268;2023-04-06T16:19:09;14.80;;;8.60;;
40170;SDS011;37650;52.790;18.268;2023-04-06T16:22:31;16.00;;;7.40;;
40170;SDS011;37650;52.790;18.268;2023-04-06T16:25:53;13.60;;;7.90;;
40170;SDS011;37650;52.790;18.268;2023-04-06T16:29:14;13.60;;;8.10;;
40170;SDS011;37650;52.790;18.268;2023-04-06T16:32:36;12.80;;;7.70;;
40170;SDS011;37650;52.790;18.268;2023-04-06T16:35:58;13.20;;;8.20;;
40170;SDS011;37650;52.790;18.268;2023-04-06T16:39:19;13.40;;;7.60;;
40170;SDS011;37650;52.790;18.268;2023-04-06T16:42:42;14.40;;;6.70;;
40170;SDS011;37650;52.790;18.268;2023-04-06T16:46:04;10.20;;;7.00;;
40170;SDS011;37650;52.790;18.268;2023-04-06T16:49:27;15.00;;;7.90;;
40170;SDS011;37650;52.790;18.268;2023-04-06T16:52:49;20.60;;;9.00;;
40170;SDS011;37650;52.790;18.268;2023-04-06T16:56:10;9.10;;;6.50;;
40170;SDS011;37650;52.790;18.268;2023-04-06T16:59:30;13.00;;;7.90;;
40170;SDS011;37650;52.790;18.268;2023-04-06T17:02:52;14.20;;;7.80;;
40170;SDS011;37650;52.790;18.268;2023-04-06T17:06:20;16.70;;;7.80;;
40170;SDS011;37650;52.790;18.268;2023-04-06T17:09:42;12.40;;;7.60;;
40170;SDS011;37650;52.790;18.268;2023-04-06T17:13:03;12.40;;;7.60;;
40170;SDS011;37650;52.790;18.268;2023-04-06T17:16:26;17.00;;;9.70;;
40170;SDS011;37650;52.790;18.268;2023-04-06T17:19:47;15.00;;;8.60;;
40170;SDS011;37650;52.790;18.268;2023-04-06T17:23:09;10.50;;;5.70;;
40170;SDS011;37650;52.790;18.268;2023-04-06T17:26:30;12.50;;;6.50;;
40170;SDS011;37650;52.790;18.268;2023-04-06T17:29:51;13.60;;;6.80;;
40170;SDS011;37650;52.790;18.268;2023-04-06T17:33:12;13.50;;;6.70;;
40170;SDS011;37650;52.790;18.268;2023-04-06T17:36:35;11.10;;;6.20;;
40170;SDS011;37650;52.790;18.268;2023-04-06T17:39:57;10.20;;;5.10;;
40170;SDS011;37650;52.790;18.268;2023-04-06T17:43:18;8.40;;;4.80;;
40170;SDS011;37650;52.790;18.268;2023-04-06T17:46:39;10.50;;;5.40;;
40170;SDS011;37650;52.790;18.268;2023-04-06T17:50:00;9.80;;;5.50;;
40170;SDS011;37650;52.790;18.268;2023-04-06T17:53:22;8.90;;;6.00;;
40170;SDS011;37650;52.790;18.268;2023-04-06T17:56:43;11.80;;;4.90;;
40170;SDS011;37650;52.790;18.268;2023-04-06T18:00:05;7.00;;;3.90;;
40170;SDS011;37650;52.790;18.268;2023-04-06T18:03:29;6.70;;;3.80;;
40170;SDS011;37650;52.790;18.268;2023-04-06T18:06:51;7.80;;;4.20;;
40170;SDS011;37650;52.790;18.268;2023-04-06T18:10:12;8.50;;;4.40;;
40170;SDS011;37650;52.790;18.268;2023-04-06T18:13:34;8.70;;;4.30;;
40170;SDS011;37650;52.790;18.268;2023-04-06T18:16:56;10.20;;;5.00;;
40170;SDS011;37650;52.790;18.268;2023-04-06T18:20:18;8.40;;;3.80;;
40170;SDS011;37650;52.790;18.268;2023-04-06T18:23:39;11.50;;;4.90;;
40170;SDS011;37650;52.790;18.268;2023-04-06T18:27:00;10.80;;;5.80;;
40170;SDS011;37650;52.790;18.268;2023-04-06T18:30:22;9.10;;;4.30;;
40170;SDS011;37650;52.790;18.268;2023-04-06T18:33:43;11.40;;;6.00;;
40170;SDS011;37650;52.790;18.268;2023-04-06T18:37:04;12.70;;;9.10;;
40170;SDS011;37650;52.790;18.268;2023-04-06T18:43:55;10.50;;;6.00;;
40170;SDS011;37650;52.790;18.268;2023-04-06T18:47:17;11.50;;;6.50;;
40170;SDS011;37650;52.790;18.268;2023-04-06T18:54:00;9.00;;;4.60;;
40170;SDS011;37650;52.790;18.268;2023-04-06T18:57:22;10.00;;;4.70;;
40170;SDS011;37650;52.790;18.268;2023-04-06T19:00:44;8.80;;;5.10;;
40170;SDS011;37650;52.790;18.268;2023-04-06T19:04:06;9.20;;;5.60;;
40170;SDS011;37650;52.790;18.268;2023-04-06T19:07:27;9.50;;;5.20;;
40170;SDS011;37650;52.790;18.268;2023-04-06T19:10:50;6.30;;;4.20;;
40170;SDS011;37650;52.790;18.268;2023-04-06T19:14:13;6.20;;;3.70;;
40170;SDS011;37650;52.790;18.268;2023-04-06T19:17:35;6.50;;;3.80;;
40170;SDS011;37650;52.790;18.268;2023-04-06T19:20:57;8.30;;;5.00;;
40170;SDS011;37650;52.790;18.268;2023-04-06T19:24:21;10.10;;;5.40;;
40170;SDS011;37650;52.790;18.268;2023-04-06T19:27:43;8.50;;;4.50;;
40170;SDS011;37650;52.790;18.268;2023-04-06T19:31:08;18.00;;;8.60;;
40170;SDS011;37650;52.790;18.268;2023-04-06T19:34:32;23.00;;;11.80;;
40170;SDS011;37650;52.790;18.268;2023-04-06T19:37:59;15.80;;;8.40;;
40170;SDS011;37650;52.790;18.268;2023-04-06T19:41:21;8.30;;;4.80;;
40170;SDS011;37650;52.790;18.268;2023-04-06T19:44:42;13.80;;;6.70;;
40170;SDS011;37650;52.790;18.268;2023-04-06T19:48:03;11.70;;;6.40;;
40170;SDS011;37650;52.790;18.268;2023-04-06T19:51:25;11.90;;;6.20;;
40170;SDS011;37650;52.790;18.268;2023-04-06T19:54:53;12.50;;;6.90;;
40170;SDS011;37650;52.790;18.268;2023-04-06T19:58:14;17.10;;;9.50;;
40170;SDS011;37650;52.790;18.268;2023-04-06T20:01:35;9.40;;;5.40;;
40170;SDS011;37650;52.790;18.268;2023-04-06T20:04:57;9.90;;;5.80;;
40170;SDS011;37650;52.790;18.268;2023-04-06T20:08:17;8.50;;;4.80;;
40170;SDS011;37650;52.790;18.268;2023-04-06T20:11:39;10.50;;;6.10;;
40170;SDS011;37650;52.790;18.268;2023-04-06T20:18:22;15.00;;;8.10;;